Phelps, New York
Current Conditions -  °F | °C
As of 1:53 AM on Sunday 26 Oct 2014 (Local Time) from KPEO Reporting Station
Clear Clear  
Wind Chill: 10°   Ceiling: Unl
Heat Index: 10°   Visibility: 10mi
Dew Point:   Wind: 8mph
Humidity: 66%   Direction: 280°W
Pressure: 29.62"   Gusts: 21mph
Location:  42.96°N, 77.06°W
Report Text: KPEO 260553Z AUTO 28007G18KT 10SM CLR 10/04 A2962 RMK AO2 SLP028 60011 T01000039 10150 20100 51019
Loading
Personal Weather Stations






























Interactive Weather Map
Tropical Storm Tracking
New forecast layout! Learn more

10-Day Weather Forecast

Advertisements
Track Severe Weather on mobile